Time;durP1;ratioP1;P1;durP2;ratioP2;P2;SDS_P1;SDS_P2;PMS_P1;PMS_P2;Temp;Humidity;BMP_temperature;BMP_pressure;BME280_temperature;BME280_humidity;BME280_pressure;Samples;Min_cycle;Max_cycle;Signal;HPM_P1;HPM_P2
2024/01/08 00:00:16;;;;;;;7.55;3.95;;;0.60;99.90;;;;;;4145338;28;20022;-68
2024/01/08 00:02:17;;;;;;;5.55;3.30;;;0.60;99.90;;;;;;4146272;28;20030;-68
2024/01/08 00:04:18;;;;;;;6.38;3.72;;;0.50;99.90;;;;;;4146515;28;20030;-68
2024/01/08 00:06:18;;;;;;;5.38;3.33;;;0.50;99.90;;;;;;4131844;28;20035;-68
2024/01/08 00:08:20;;;;;;;3.17;2.42;;;0.40;99.90;;;;;;4132544;28;20116;-68
2024/01/08 00:10:20;;;;;;;3.63;2.60;;;0.30;99.90;;;;;;4128886;28;20033;-68
2024/01/08 00:12:21;;;;;;;6.57;3.08;;;0.40;99.90;;;;;;4129978;28;20038;-68
2024/01/08 00:14:21;;;;;;;7.32;3.15;;;0.20;99.90;;;;;;4130076;28;20038;-68
2024/01/08 00:16:22;;;;;;;4.40;2.90;;;0.10;99.90;;;;;;4142551;28;20033;-68
2024/01/08 00:18:22;;;;;;;4.07;2.63;;;0.10;99.90;;;;;;4141487;28;20038;-68
2024/01/08 00:20:23;;;;;;;3.85;2.83;;;0.10;99.90;;;;;;4129002;28;20038;-68
2024/01/08 00:22:24;;;;;;;5.10;3.22;;;0.10;99.90;;;;;;4130909;28;20448;-73
2024/01/08 00:24:24;;;;;;;4.32;2.65;;;0.10;99.90;;;;;;4134351;28;20113;-73
2024/01/08 00:26:25;;;;;;;3.85;2.70;;;0.00;99.90;;;;;;4141867;28;20089;-73
2024/01/08 00:28:26;;;;;;;5.68;3.00;;;0.10;99.90;;;;;;4132133;28;20391;-73
2024/01/08 00:30:27;;;;;;;3.85;2.80;;;0.00;99.90;;;;;;4128762;28;20037;-71
2024/01/08 00:32:27;;;;;;;6.25;3.03;;;0.10;99.90;;;;;;4127951;28;20027;-71
2024/01/08 00:34:28;;;;;;;8.48;3.05;;;0.00;99.90;;;;;;4130588;28;20035;-72
2024/01/08 00:36:28;;;;;;;6.55;2.92;;;0.10;99.90;;;;;;4129254;28;20487;-73
2024/01/08 00:38:29;;;;;;;5.93;3.90;;;0.10;99.90;;;;;;4142938;28;20038;-72
2024/01/08 00:40:29;;;;;;;5.18;2.95;;;0.00;99.90;;;;;;4142650;28;20037;-72
2024/01/08 00:42:30;;;;;;;5.70;3.30;;;-0.10;99.90;;;;;;4139433;28;20040;-72
2024/01/08 00:44:31;;;;;;;8.63;3.55;;;0.00;99.90;;;;;;4144002;28;20041;-72
2024/01/08 00:46:31;;;;;;;4.55;3.20;;;-0.10;99.90;;;;;;4142985;28;20022;-73
2024/01/08 00:48:32;;;;;;;5.93;3.72;;;-0.10;99.90;;;;;;4138743;28;20479;-72
2024/01/08 00:50:33;;;;;;;6.28;3.85;;;0.00;99.90;;;;;;4128522;28;20101;-71
2024/01/08 00:52:33;;;;;;;6.55;4.00;;;0.10;99.90;;;;;;4132855;28;20109;-72
2024/01/08 00:54:34;;;;;;;6.40;4.18;;;0.10;99.90;;;;;;4144739;28;20030;-72
2024/01/08 00:56:34;;;;;;;6.13;3.50;;;0.10;99.90;;;;;;4143014;28;20049;-72
2024/01/08 00:58:36;;;;;;;6.63;3.55;;;0.10;99.90;;;;;;4139572;28;20613;-72
2024/01/08 01:00:37;;;;;;;8.90;4.45;;;0.10;99.90;;;;;;4128338;28;20096;-72
2024/01/08 01:02:40;;;;;;;4.88;3.80;;;0.20;99.90;;;;;;4135631;28;20050;-72
2024/01/08 01:04:40;;;;;;;7.93;4.35;;;0.30;99.90;;;;;;4142616;28;20041;-73
2024/01/08 01:06:41;;;;;;;6.50;4.13;;;0.30;99.90;;;;;;4143407;28;20466;-73
2024/01/08 01:08:41;;;;;;;5.47;3.70;;;0.40;99.90;;;;;;4142746;28;20450;-73
2024/01/08 01:10:42;;;;;;;5.78;4.03;;;0.40;99.90;;;;;;4144441;28;20061;-72
2024/01/08 01:12:43;;;;;;;5.43;4.10;;;0.40;99.90;;;;;;4137916;28;20027;-73
2024/01/08 01:14:43;;;;;;;4.75;3.55;;;0.40;99.90;;;;;;4131296;28;20140;-73
2024/01/08 01:16:44;;;;;;;4.82;3.40;;;0.40;99.90;;;;;;4128476;28;20042;-72
2024/01/08 01:18:44;;;;;;;6.80;3.83;;;0.40;99.90;;;;;;4135999;28;20110;-72
2024/01/08 01:20:45;;;;;;;7.30;4.20;;;0.40;99.90;;;;;;4134908;28;20056;-73
2024/01/08 01:22:45;;;;;;;5.32;3.72;;;0.40;99.90;;;;;;4145090;28;20022;-73
2024/01/08 01:24:46;;;;;;;6.05;3.45;;;0.50;99.90;;;;;;4143640;28;20482;-73
2024/01/08 01:26:47;;;;;;;6.15;3.85;;;0.50;99.90;;;;;;4128113;28;25298;-73
2024/01/08 01:28:47;;;;;;;5.90;3.97;;;0.50;99.90;;;;;;4131817;28;20042;-73
2024/01/08 01:30:48;;;;;;;5.35;3.90;;;0.50;99.90;;;;;;4126851;28;20113;-72
2024/01/08 01:32:48;;;;;;;6.07;4.07;;;0.50;99.90;;;;;;4128176;28;20039;-69
2024/01/08 01:34:49;;;;;;;5.82;3.95;;;0.50;99.90;;;;;;4131216;28;20041;-69
2024/01/08 01:36:49;;;;;;;7.05;4.05;;;0.60;99.90;;;;;;4126365;28;20034;-69
2024/01/08 01:38:50;;;;;;;7.90;4.30;;;0.50;99.90;;;;;;4138200;28;20046;-69
2024/01/08 01:40:51;;;;;;;8.85;4.03;;;0.40;99.90;;;;;;4141956;28;20429;-72
2024/01/08 01:42:54;;;;;;;6.18;4.07;;;0.40;99.90;;;;;;4139630;28;20553;-79
2024/01/08 01:44:55;;;;;;;5.70;4.10;;;0.30;99.90;;;;;;4127846;28;20060;-80
2024/01/08 01:46:56;;;;;;;5.53;3.70;;;0.40;99.90;;;;;;4141986;28;20116;-80
2024/01/08 01:48:57;;;;;;;7.72;3.78;;;0.30;99.90;;;;;;4132588;28;20054;-81
2024/01/08 01:50:58;;;;;;;5.40;3.90;;;0.30;99.90;;;;;;4123973;28;20027;-80
2024/01/08 01:52:59;;;;;;;6.50;3.50;;;0.30;99.90;;;;;;4126578;28;20367;-66
2024/01/08 01:54:59;;;;;;;7.18;4.05;;;0.30;99.90;;;;;;4129754;28;20057;-66
2024/01/08 01:57:02;;;;;;;7.85;3.90;;;0.30;99.90;;;;;;4124089;28;20053;-66
2024/01/08 01:59:04;;;;;;;6.47;4.38;;;0.30;99.90;;;;;;4130909;28;20038;-68
2024/01/08 02:01:04;;;;;;;6.05;3.95;;;0.30;99.90;;;;;;4127489;28;20117;-66
2024/01/08 02:03:06;;;;;;;7.53;3.50;;;0.20;99.90;;;;;;4128288;28;20037;-66
2024/01/08 02:05:07;;;;;;;5.60;3.63;;;0.20;99.90;;;;;;4132733;28;20046;-67
2024/01/08 02:07:08;;;;;;;6.38;3.63;;;0.20;99.90;;;;;;4144266;28;20065;-66
2024/01/08 02:09:09;;;;;;;4.45;3.22;;;0.10;99.90;;;;;;4133534;28;20030;-66
2024/01/08 02:11:10;;;;;;;6.33;3.53;;;0.00;99.90;;;;;;4127440;28;20109;-65
2024/01/08 02:13:11;;;;;;;6.80;3.47;;;0.00;99.90;;;;;;4128937;28;20038;-65
2024/01/08 02:15:11;;;;;;;5.55;3.97;;;-0.10;99.90;;;;;;4149469;28;20517;-67
2024/01/08 02:17:12;;;;;;;5.25;3.30;;;-0.20;99.90;;;;;;4144436;28;20030;-66
2024/01/08 02:19:12;;;;;;;6.50;3.58;;;-0.10;99.90;;;;;;4140174;28;20108;-66
2024/01/08 02:21:14;;;;;;;5.63;3.53;;;-0.20;99.90;;;;;;4143099;28;20037;-66
2024/01/08 02:23:14;;;;;;;6.72;4.15;;;-0.20;99.90;;;;;;4143428;28;20514;-65
2024/01/08 02:25:15;;;;;;;5.53;3.67;;;-0.20;99.90;;;;;;4141259;28;20046;-66
2024/01/08 02:27:16;;;;;;;6.22;4.10;;;-0.20;99.90;;;;;;4144694;28;20041;-66
2024/01/08 02:29:19;;;;;;;6.00;4.00;;;-0.20;99.90;;;;;;4132797;28;20038;-66
2024/01/08 02:31:20;;;;;;;5.68;3.30;;;-0.20;99.90;;;;;;4127385;28;20437;-66
2024/01/08 02:33:21;;;;;;;5.95;4.13;;;-0.20;99.90;;;;;;4130310;28;20061;-66
2024/01/08 02:35:21;;;;;;;7.63;4.30;;;-0.20;99.90;;;;;;4133524;28;20057;-66
2024/01/08 02:37:22;;;;;;;6.60;3.85;;;-0.20;99.90;;;;;;4144413;28;20081;-66
2024/01/08 02:39:23;;;;;;;6.00;3.70;;;-0.10;99.90;;;;;;4141323;28;20567;-66
2024/01/08 02:41:23;;;;;;;5.80;3.45;;;-0.10;99.90;;;;;;4143646;28;20042;-66
2024/01/08 02:43:24;;;;;;;6.97;3.83;;;0.00;99.90;;;;;;4143964;28;20399;-66
2024/01/08 02:45:25;;;;;;;6.80;4.10;;;0.00;99.90;;;;;;4136718;28;20038;-66
2024/01/08 02:47:25;;;;;;;6.25;4.10;;;0.00;99.90;;;;;;4127991;28;20045;-66
2024/01/08 02:49:27;;;;;;;6.70;3.67;;;0.00;99.90;;;;;;4141146;28;20096;-65
2024/01/08 02:51:27;;;;;;;5.93;3.90;;;0.10;99.90;;;;;;4143478;28;20034;-66
2024/01/08 02:53:28;;;;;;;5.45;3.60;;;0.10;99.90;;;;;;4144007;28;20076;-66
2024/01/08 02:55:28;;;;;;;5.88;3.60;;;0.20;99.90;;;;;;4141183;28;20504;-66
2024/01/08 02:57:30;;;;;;;6.38;3.53;;;0.20;99.90;;;;;;4146944;28;20421;-68
2024/01/08 02:59:30;;;;;;;5.72;3.65;;;0.30;99.90;;;;;;4133876;28;20038;-66
2024/01/08 03:01:31;;;;;;;5.50;3.70;;;0.30;99.90;;;;;;4130223;28;20398;-70
2024/01/08 03:03:31;;;;;;;6.00;3.90;;;0.30;99.90;;;;;;4130969;28;20043;-69
2024/01/08 03:05:32;;;;;;;5.80;3.83;;;0.30;99.90;;;;;;4137985;28;20365;-69
2024/01/08 03:07:32;;;;;;;5.10;3.92;;;0.40;99.90;;;;;;4147187;28;20070;-69
2024/01/08 03:09:33;;;;;;;7.60;4.22;;;0.30;99.90;;;;;;4133319;28;20395;-70
2024/01/08 03:11:34;;;;;;;7.82;3.45;;;0.40;99.90;;;;;;4130029;28;20041;-69
2024/01/08 03:13:34;;;;;;;5.13;3.80;;;0.40;99.90;;;;;;4130954;28;20113;-69
2024/01/08 03:15:35;;;;;;;5.63;4.20;;;0.30;99.90;;;;;;4132357;28;20348;-69
2024/01/08 03:17:35;;;;;;;7.80;4.28;;;0.40;99.90;;;;;;4131150;28;20035;-69
2024/01/08 03:19:37;;;;;;;7.40;4.05;;;0.40;99.90;;;;;;4133077;28;20104;-68
2024/01/08 03:21:39;;;;;;;5.17;3.60;;;0.40;99.90;;;;;;4129874;28;20034;-69
2024/01/08 03:23:40;;;;;;;6.20;3.95;;;0.40;99.90;;;;;;4130833;28;20034;-69
2024/01/08 03:25:40;;;;;;;7.65;4.75;;;0.40;99.90;;;;;;4132279;28;20080;-69
2024/01/08 03:27:41;;;;;;;7.20;4.22;;;0.40;99.90;;;;;;4131381;28;20042;-69
2024/01/08 03:29:41;;;;;;;9.30;4.55;;;0.40;99.90;;;;;;4133035;28;20043;-69
2024/01/08 03:31:43;;;;;;;9.85;5.18;;;0.40;99.90;;;;;;4145818;28;20030;-69
2024/01/08 03:33:43;;;;;;;6.93;4.55;;;0.40;99.90;;;;;;4146873;28;20104;-69
2024/01/08 03:35:44;;;;;;;6.90;4.47;;;0.30;99.90;;;;;;4143718;28;20041;-69
2024/01/08 03:37:45;;;;;;;6.22;4.50;;;0.30;99.90;;;;;;4146508;28;20034;-69
2024/01/08 03:39:45;;;;;;;5.88;3.88;;;0.40;99.90;;;;;;4144829;28;20042;-69
2024/01/08 03:41:46;;;;;;;6.95;4.05;;;0.30;99.90;;;;;;4144468;28;20033;-70
2024/01/08 03:43:46;;;;;;;7.80;4.68;;;0.40;99.90;;;;;;4146710;28;20121;-70
2024/01/08 03:45:47;;;;;;;7.95;4.40;;;0.40;99.90;;;;;;4143644;28;20552;-69
2024/01/08 03:47:48;;;;;;;7.63;3.92;;;0.50;99.90;;;;;;4145924;28;20413;-69
2024/01/08 03:49:48;;;;;;;6.78;4.22;;;0.40;99.90;;;;;;4145759;28;20406;-70
2024/01/08 03:51:49;;;;;;;7.50;4.78;;;0.40;99.90;;;;;;4145648;28;20129;-70
2024/01/08 03:53:49;;;;;;;8.35;4.75;;;0.50;99.90;;;;;;4146403;28;20158;-70
2024/01/08 03:55:50;;;;;;;6.97;4.25;;;0.40;99.90;;;;;;4142964;28;20410;-70
2024/01/08 03:57:50;;;;;;;7.20;5.13;;;0.50;99.90;;;;;;4144311;28;20056;-70
2024/01/08 03:59:51;;;;;;;7.18;4.28;;;0.40;99.90;;;;;;4131124;28;20034;-70
2024/01/08 04:01:52;;;;;;;7.18;4.55;;;0.50;99.90;;;;;;4127660;28;20038;-69
2024/01/08 04:03:52;;;;;;;6.60;4.35;;;0.50;99.90;;;;;;4130327;28;20406;-69
2024/01/08 04:05:53;;;;;;;7.05;4.22;;;0.50;99.90;;;;;;4140144;28;20131;-70
2024/01/08 04:07:53;;;;;;;7.00;4.53;;;0.50;99.90;;;;;;4144323;28;20050;-70
2024/01/08 04:09:54;;;;;;;9.23;5.10;;;0.50;99.90;;;;;;4144887;28;20042;-70
2024/01/08 04:11:55;;;;;;;7.47;4.80;;;0.50;99.90;;;;;;4145810;28;20049;-69
2024/01/08 04:13:56;;;;;;;7.38;4.45;;;0.50;99.90;;;;;;4144729;28;20403;-69
2024/01/08 04:15:57;;;;;;;10.48;4.72;;;0.50;99.90;;;;;;4132786;28;20051;-68
2024/01/08 04:17:57;;;;;;;8.07;4.78;;;0.40;99.90;;;;;;4132627;28;20042;-68
2024/01/08 04:19:58;;;;;;;6.90;4.70;;;0.40;99.90;;;;;;4130056;28;20125;-69
2024/01/08 04:21:59;;;;;;;8.82;4.57;;;0.40;99.90;;;;;;4129043;28;20474;-68
2024/01/08 04:23:59;;;;;;;8.18;4.47;;;0.40;99.90;;;;;;4129542;28;20057;-68
2024/01/08 04:26:00;;;;;;;7.57;4.40;;;0.40;99.90;;;;;;4139067;28;20128;-68
2024/01/08 04:28:00;;;;;;;7.88;5.47;;;0.40;99.90;;;;;;4131771;28;20037;-67
2024/01/08 04:30:01;;;;;;;8.10;4.82;;;0.40;99.90;;;;;;4145268;28;20093;-69
2024/01/08 04:32:02;;;;;;;8.63;5.43;;;0.30;99.90;;;;;;4143473;28;20461;-69
2024/01/08 04:34:02;;;;;;;8.15;4.28;;;0.40;99.90;;;;;;4144626;28;20109;-68
2024/01/08 04:36:03;;;;;;;6.90;4.72;;;0.40;99.90;;;;;;4142858;28;20100;-68
2024/01/08 04:38:04;;;;;;;10.48;5.85;;;0.30;99.90;;;;;;4143227;28;20037;-68
2024/01/08 04:40:05;;;;;;;7.88;5.30;;;0.20;99.90;;;;;;4131567;28;20034;-69
2024/01/08 04:42:06;;;;;;;7.40;5.07;;;0.30;99.90;;;;;;4145242;28;20030;-67
2024/01/08 04:44:07;;;;;;;8.48;4.88;;;0.30;99.90;;;;;;4145384;28;20515;-68
2024/01/08 04:46:08;;;;;;;8.83;4.97;;;0.30;99.90;;;;;;4142547;28;20038;-68
2024/01/08 04:48:09;;;;;;;8.77;4.70;;;0.40;99.90;;;;;;4143027;28;20061;-68
2024/01/08 04:50:09;;;;;;;8.32;5.00;;;0.40;99.90;;;;;;4139456;28;20397;-68
2024/01/08 04:52:10;;;;;;;10.07;5.03;;;0.40;99.90;;;;;;4144755;28;20303;-68
2024/01/08 04:54:10;;;;;;;8.90;5.47;;;0.40;99.90;;;;;;4145536;28;20422;-68
2024/01/08 04:56:21;;;;;;;8.85;5.05;;;0.40;99.90;;;;;;4142255;28;20046;-68
2024/01/08 04:58:22;;;;;;;10.10;5.38;;;0.40;99.90;;;;;;4140396;28;20122;-69
2024/01/08 05:00:22;;;;;;;7.47;5.00;;;0.40;99.90;;;;;;4124835;28;20495;-68
2024/01/08 05:02:23;;;;;;;10.07;5.63;;;0.40;99.90;;;;;;4127641;28;20518;-68
2024/01/08 05:04:23;;;;;;;7.55;5.18;;;0.30;99.90;;;;;;4129662;28;20096;-68
2024/01/08 05:06:25;;;;;;;7.68;4.68;;;0.40;99.90;;;;;;4140644;28;20034;-68
2024/01/08 05:08:25;;;;;;;9.30;5.25;;;0.40;99.90;;;;;;4142899;28;20375;-68
2024/01/08 05:10:26;;;;;;;8.93;4.82;;;0.40;99.90;;;;;;4144087;28;20038;-68
2024/01/08 05:12:26;;;;;;;10.75;5.60;;;0.30;99.90;;;;;;4139647;28;20112;-68
2024/01/08 05:14:27;;;;;;;8.18;4.78;;;0.40;99.90;;;;;;4136313;28;20394;-68
2024/01/08 05:16:27;;;;;;;8.70;5.25;;;0.40;99.90;;;;;;4138647;28;20025;-68
2024/01/08 05:18:29;;;;;;;10.88;5.57;;;0.40;99.90;;;;;;4138271;28;20109;-67
2024/01/08 05:20:30;;;;;;;6.35;4.53;;;0.40;99.90;;;;;;4130787;28;20249;-68
2024/01/08 05:22:31;;;;;;;8.70;5.28;;;0.50;99.90;;;;;;4141691;28;20085;-64
2024/01/08 05:24:31;;;;;;;7.35;4.55;;;0.40;99.90;;;;;;4143994;28;20041;-64
2024/01/08 05:26:32;;;;;;;10.52;5.75;;;0.40;99.90;;;;;;4142958;28;20045;-64
2024/01/08 05:28:32;;;;;;;9.90;5.72;;;0.30;99.90;;;;;;4136886;28;20088;-64
2024/01/08 05:30:33;;;;;;;9.68;5.90;;;0.30;99.90;;;;;;4130259;28;20030;-64
2024/01/08 05:32:34;;;;;;;10.98;5.68;;;0.40;99.90;;;;;;4136505;28;20045;-65
2024/01/08 05:34:34;;;;;;;9.70;5.63;;;0.30;99.90;;;;;;4151189;28;20056;-64
2024/01/08 05:36:35;;;;;;;9.20;5.55;;;0.40;99.90;;;;;;4139450;28;20038;-64
2024/01/08 05:38:36;;;;;;;10.07;5.50;;;0.40;99.90;;;;;;4140268;28;20101;-64
2024/01/08 05:40:37;;;;;;;9.80;6.00;;;0.40;99.90;;;;;;4143802;28;20029;-65
2024/01/08 05:42:39;;;;;;;11.35;5.85;;;0.40;99.90;;;;;;4144727;28;20079;-64
2024/01/08 05:44:40;;;;;;;10.48;5.63;;;0.40;99.90;;;;;;4143337;28;20041;-64
2024/01/08 05:46:42;;;;;;;9.48;5.80;;;0.40;99.90;;;;;;4128458;28;20068;-64
2024/01/08 05:48:42;;;;;;;9.88;5.85;;;0.40;99.90;;;;;;4136110;28;20516;-64
2024/01/08 05:50:43;;;;;;;12.50;5.85;;;0.40;99.90;;;;;;4143293;28;20026;-64
2024/01/08 05:52:44;;;;;;;11.52;6.40;;;0.40;99.90;;;;;;4133641;28;20041;-64
2024/01/08 05:54:44;;;;;;;11.25;6.93;;;0.40;99.90;;;;;;4143130;28;20298;-64
2024/01/08 05:56:45;;;;;;;11.02;5.95;;;0.40;99.90;;;;;;4135922;28;20044;-64
2024/01/08 05:58:45;;;;;;;10.73;6.20;;;0.40;99.90;;;;;;4143925;28;20029;-64
2024/01/08 06:00:46;;;;;;;9.40;5.72;;;0.30;99.90;;;;;;4143639;28;20405;-64
2024/01/08 06:02:47;;;;;;;10.57;6.55;;;0.40;99.90;;;;;;4141847;28;20030;-64
2024/01/08 06:04:47;;;;;;;12.50;6.45;;;0.40;99.90;;;;;;4139715;28;20403;-64
2024/01/08 06:06:49;;;;;;;10.98;5.85;;;0.40;99.90;;;;;;4141736;28;20075;-64
2024/01/08 06:08:50;;;;;;;9.77;6.22;;;0.50;99.90;;;;;;4141646;28;20190;-64
2024/01/08 06:10:50;;;;;;;12.00;6.03;;;0.50;99.90;;;;;;4138100;28;20586;-64
2024/01/08 06:12:51;;;;;;;9.35;5.68;;;0.50;99.90;;;;;;4141330;28;20128;-64
2024/01/08 06:14:51;;;;;;;11.05;6.20;;;0.50;99.90;;;;;;4139121;28;20135;-64
2024/01/08 06:16:52;;;;;;;12.05;6.25;;;0.50;99.90;;;;;;4140123;28;20255;-63
2024/01/08 06:18:53;;;;;;;11.55;6.60;;;0.60;99.90;;;;;;4141771;28;20391;-64
2024/01/08 06:20:53;;;;;;;13.80;7.25;;;0.60;99.90;;;;;;4142369;28;20049;-64
2024/01/08 06:22:54;;;;;;;11.48;6.93;;;0.70;99.90;;;;;;4140643;28;20517;-64
2024/01/08 06:24:55;;;;;;;9.75;6.60;;;0.70;99.90;;;;;;4142719;28;20050;-64
2024/01/08 06:26:56;;;;;;;10.38;6.72;;;0.60;99.90;;;;;;4131122;28;20030;-64
2024/01/08 06:28:56;;;;;;;10.45;6.47;;;0.60;99.90;;;;;;4136422;28;20501;-64
2024/01/08 06:30:57;;;;;;;9.63;6.30;;;0.60;99.90;;;;;;4141361;28;20045;-69
2024/01/08 06:32:58;;;;;;;11.23;6.80;;;0.60;99.90;;;;;;4142417;28;20052;-65
2024/01/08 06:34:58;;;;;;;11.25;6.68;;;0.60;99.90;;;;;;4145756;28;20038;-65
2024/01/08 06:36:59;;;;;;;9.90;6.53;;;0.60;99.90;;;;;;4137562;28;20046;-66
2024/01/08 06:39:00;;;;;;;11.93;6.90;;;0.60;99.90;;;;;;4137397;28;20048;-65
2024/01/08 06:41:00;;;;;;;13.13;6.93;;;0.60;99.90;;;;;;4146026;28;20057;-66
2024/01/08 06:43:01;;;;;;;10.80;6.53;;;0.60;99.90;;;;;;4136605;28;20021;-66
2024/01/08 06:45:02;;;;;;;11.23;6.82;;;0.70;99.90;;;;;;4137280;28;20045;-66
2024/01/08 06:47:03;;;;;;;10.55;6.45;;;0.70;99.90;;;;;;4139273;28;20092;-65
2024/01/08 06:49:03;;;;;;;11.75;6.72;;;0.60;99.90;;;;;;4136326;28;20045;-67
2024/01/08 06:51:04;;;;;;;11.48;6.35;;;0.60;99.90;;;;;;4134407;28;20117;-66
2024/01/08 06:53:04;;;;;;;11.02;6.88;;;0.70;99.90;;;;;;4134067;28;20490;-65
2024/01/08 06:55:06;;;;;;;12.43;6.90;;;0.70;99.90;;;;;;4138889;28;20513;-66
2024/01/08 06:57:06;;;;;;;12.63;6.85;;;0.70;99.90;;;;;;4139371;28;20475;-66
2024/01/08 06:59:07;;;;;;;11.23;6.63;;;0.60;99.90;;;;;;4138888;28;20034;-66
2024/01/08 07:01:07;;;;;;;12.02;6.60;;;0.60;99.90;;;;;;4135333;28;20030;-66
2024/01/08 07:03:08;;;;;;;12.55;6.53;;;0.50;99.90;;;;;;4139494;28;20056;-66
2024/01/08 07:05:09;;;;;;;10.52;6.22;;;0.60;99.90;;;;;;4131351;28;20048;-66
2024/01/08 07:07:10;;;;;;;10.70;6.47;;;0.60;99.90;;;;;;4141279;28;20022;-65
2024/01/08 07:09:10;;;;;;;10.38;6.50;;;0.60;99.90;;;;;;4141577;28;20570;-66
2024/01/08 07:11:24;;;;;;;12.30;7.15;;;0.60;99.90;;;;;;4142137;28;20034;-66
2024/01/08 07:13:25;;;;;;;11.13;6.70;;;0.60;99.90;;;;;;4142319;28;20238;-66
2024/01/08 07:15:37;;;;;;;9.15;6.15;;;0.60;99.90;;;;;;4139469;28;20073;-65
2024/01/08 07:17:37;;;;;;;11.75;6.63;;;0.50;99.90;;;;;;4140134;28;20508;-66
2024/01/08 07:19:38;;;;;;;12.20;6.35;;;0.60;99.90;;;;;;4141294;28;20038;-65
2024/01/08 07:21:39;;;;;;;12.43;7.10;;;0.60;99.90;;;;;;4139093;28;20038;-66
2024/01/08 07:23:39;;;;;;;10.98;6.68;;;0.60;99.90;;;;;;4137092;28;20042;-66
2024/01/08 07:25:41;;;;;;;9.77;6.07;;;0.60;99.90;;;;;;4138170;28;20042;-65
2024/01/08 07:27:42;;;;;;;9.73;6.28;;;0.60;99.90;;;;;;4139642;28;20485;-65
2024/01/08 07:29:42;;;;;;;9.95;6.35;;;0.70;99.90;;;;;;4137803;28;20046;-66
2024/01/08 07:31:43;;;;;;;14.05;6.80;;;0.60;99.90;;;;;;4137400;28;20053;-65
2024/01/08 07:33:44;;;;;;;11.52;7.15;;;0.60;99.90;;;;;;4136507;28;20751;-65
2024/01/08 07:35:44;;;;;;;10.55;6.05;;;0.50;99.90;;;;;;4137145;28;20037;-66
2024/01/08 07:37:45;;;;;;;9.98;6.22;;;0.60;99.90;;;;;;4138095;28;20592;-65
2024/01/08 07:39:46;;;;;;;11.82;6.25;;;0.60;99.90;;;;;;4136378;28;20576;-65
2024/01/08 07:41:49;;;;;;;11.50;6.75;;;0.50;99.90;;;;;;4135651;28;20529;-76
2024/01/08 07:43:49;;;;;;;12.65;6.25;;;0.50;99.90;;;;;;4137966;28;20128;-76
2024/01/08 07:45:51;;;;;;;10.32;6.43;;;0.40;99.90;;;;;;4137351;28;20077;-75
2024/01/08 07:47:51;;;;;;;10.85;6.45;;;0.50;99.90;;;;;;4136130;28;20058;-75
2024/01/08 07:49:52;;;;;;;11.38;6.50;;;0.40;99.90;;;;;;4139859;28;20068;-76
2024/01/08 07:51:53;;;;;;;12.05;6.72;;;0.40;99.90;;;;;;4139316;28;20446;-68
2024/01/08 07:53:54;;;;;;;13.10;7.80;;;0.50;99.90;;;;;;4139461;28;20121;-68
2024/01/08 07:55:54;;;;;;;10.13;6.30;;;0.50;99.90;;;;;;4139392;28;23144;-68
2024/01/08 07:57:55;;;;;;;11.70;6.72;;;0.50;99.90;;;;;;4138452;28;20053;-68
2024/01/08 07:59:57;;;;;;;13.32;7.45;;;0.50;99.90;;;;;;4141467;28;20403;-68
2024/01/08 08:01:58;;;;;;;10.48;6.15;;;0.40;99.90;;;;;;4139425;28;20060;-65
2024/01/08 08:03:58;;;;;;;14.57;6.68;;;0.40;99.90;;;;;;4139927;28;20050;-68
2024/01/08 08:05:59;;;;;;;10.85;6.72;;;0.40;99.90;;;;;;4139222;28;20056;-67
2024/01/08 08:08:00;;;;;;;13.10;6.53;;;0.50;99.90;;;;;;4139859;28;20065;-67
2024/01/08 08:10:01;;;;;;;9.63;6.43;;;0.40;99.90;;;;;;4140566;28;20788;-67
2024/01/08 08:12:02;;;;;;;11.30;5.85;;;0.50;99.90;;;;;;4138463;28;20038;-67
2024/01/08 08:14:03;;;;;;;9.40;5.65;;;0.50;99.90;;;;;;4136913;28;20057;-67
2024/01/08 08:16:04;;;;;;;9.40;6.32;;;0.60;99.90;;;;;;4137123;28;20042;-67
2024/01/08 08:18:04;;;;;;;11.52;6.45;;;0.50;99.90;;;;;;4136115;28;20037;-67
2024/01/08 08:20:06;;;;;;;9.70;6.40;;;0.50;99.90;;;;;;4137084;28;20071;-68
2024/01/08 08:22:06;;;;;;;9.10;5.70;;;0.60;99.90;;;;;;4137029;28;20022;-68
2024/01/08 08:24:07;;;;;;;11.95;5.60;;;0.70;99.90;;;;;;4140217;28;20440;-68
2024/01/08 08:26:07;;;;;;;9.95;6.07;;;0.70;99.90;;;;;;4138192;28;20124;-66
2024/01/08 08:28:08;;;;;;;9.40;6.03;;;0.70;99.90;;;;;;4138504;28;20033;-67
2024/01/08 08:30:12;;;;;;;12.15;6.78;;;0.70;99.90;;;;;;4140237;28;20030;-68
2024/01/08 08:32:12;;;;;;;10.27;5.90;;;0.70;99.90;;;;;;4139786;28;20038;-67
2024/01/08 08:34:13;;;;;;;9.13;5.80;;;0.60;99.90;;;;;;4134427;28;20096;-67
2024/01/08 08:36:13;;;;;;;9.73;6.00;;;0.70;99.90;;;;;;4139673;28;20374;-68
2024/01/08 08:38:14;;;;;;;8.93;4.78;;;0.70;99.90;;;;;;4136500;28;20037;-68
2024/01/08 08:40:15;;;;;;;9.75;5.90;;;0.70;99.90;;;;;;4139408;28;20560;-68
2024/01/08 08:42:15;;;;;;;9.60;5.93;;;0.60;99.90;;;;;;4138810;28;20031;-67
2024/01/08 08:44:17;;;;;;;9.23;5.80;;;0.60;99.90;;;;;;4139911;28;20042;-67
2024/01/08 08:46:17;;;;;;;9.82;5.93;;;0.70;99.90;;;;;;4137770;28;20536;-66
2024/01/08 08:48:18;;;;;;;10.82;5.82;;;0.70;99.90;;;;;;4138466;28;20041;-67
2024/01/08 08:50:19;;;;;;;10.65;6.00;;;0.70;99.90;;;;;;4137599;28;20772;-67
2024/01/08 08:52:19;;;;;;;9.52;5.65;;;0.70;99.90;;;;;;4138576;28;20041;-68
2024/01/08 08:54:20;;;;;;;13.43;6.80;;;0.60;99.90;;;;;;4138775;28;20067;-68
2024/01/08 08:56:21;;;;;;;9.60;5.85;;;0.70;99.90;;;;;;4137444;28;20045;-67
2024/01/08 08:58:23;;;;;;;9.32;5.40;;;0.70;99.90;;;;;;4137843;28;20637;-67
2024/01/08 09:00:24;;;;;;;;;;;0.70;99.90;;;;;;4140109;28;20445;-67
2024/01/08 09:02:24;;;;;;;10.75;5.93;;;0.70;99.90;;;;;;4139551;28;19913;-67
2024/01/08 09:04:25;;;;;;;10.70;6.32;;;0.60;99.90;;;;;;4140333;28;20034;-67
2024/01/08 09:06:27;;;;;;;9.00;5.50;;;0.60;99.90;;;;;;4138592;28;20073;-67
2024/01/08 09:08:28;;;;;;;11.07;6.35;;;0.60;99.90;;;;;;4137626;28;20095;-67
2024/01/08 09:10:29;;;;;;;10.80;5.65;;;0.60;99.90;;;;;;4139259;28;20132;-68
2024/01/08 09:12:29;;;;;;;9.10;5.38;;;0.70;99.90;;;;;;4153486;28;20069;-67
2024/01/08 09:14:30;;;;;;;13.88;6.03;;;0.70;99.90;;;;;;4139539;28;20038;-67
2024/01/08 09:16:30;;;;;;;11.27;5.95;;;0.60;99.90;;;;;;4138239;28;20042;-67
2024/01/08 09:18:37;;;;;;;9.70;6.00;;;0.50;99.90;;;;;;4138324;28;20049;-68
2024/01/08 09:20:37;;;;;;;7.82;5.18;;;0.50;99.90;;;;;;4139054;28;20033;-68
2024/01/08 09:22:38;;;;;;;10.57;6.05;;;0.50;99.90;;;;;;4139902;28;20479;-68
2024/01/08 09:24:38;;;;;;;11.30;5.88;;;0.50;99.90;;;;;;4139395;28;20042;-68
2024/01/08 09:26:41;;;;;;;10.13;5.97;;;0.50;99.90;;;;;;4138667;28;20037;-68
2024/01/08 09:28:42;;;;;;;9.40;5.10;;;0.40;99.90;;;;;;4139126;28;20049;-67
2024/01/08 09:30:43;;;;;;;13.02;6.50;;;0.20;99.90;;;;;;4138179;28;20038;-67
2024/01/08 09:32:43;;;;;;;10.60;5.63;;;0.10;99.90;;;;;;4139428;28;20411;-68
2024/01/08 09:34:44;;;;;;;8.65;4.45;;;0.10;99.90;;;;;;4137112;28;20064;-68
2024/01/08 09:36:44;;;;;;;9.48;4.97;;;0.00;99.90;;;;;;4137024;28;20045;-67
2024/01/08 09:38:46;;;;;;;8.07;5.00;;;0.00;99.90;;;;;;4137575;28;20038;-67
2024/01/08 09:40:48;;;;;;;8.82;5.18;;;-0.10;99.90;;;;;;4137111;28;20098;-67
2024/01/08 09:42:52;;;;;;;10.70;4.93;;;-0.10;99.90;;;;;;4136433;28;20355;-67
2024/01/08 09:44:54;;;;;;;7.88;5.10;;;-0.20;99.90;;;;;;4137193;28;20699;-68
2024/01/08 09:46:55;;;;;;;8.63;4.85;;;-0.20;99.90;;;;;;4138085;28;20073;-67
2024/01/08 09:48:56;;;;;;;10.05;5.07;;;-0.20;99.90;;;;;;4133169;28;20522;-67
2024/01/08 09:51:01;;;;;;;10.80;5.25;;;-0.20;99.90;;;;;;4138534;28;20038;-67
2024/01/08 09:53:01;;;;;;;8.45;4.50;;;-0.20;99.90;;;;;;4139220;28;20041;-67
2024/01/08 09:55:02;;;;;;;7.85;4.20;;;-0.20;99.90;;;;;;4132549;28;20793;-68
2024/01/08 09:57:03;;;;;;;7.10;4.72;;;-0.20;99.90;;;;;;4138091;28;20149;-67
2024/01/08 09:59:04;;;;;;;7.70;3.90;;;-0.10;99.90;;;;;;4137562;28;20030;-67
2024/01/08 10:01:05;;;;;;;8.85;4.18;;;-0.10;99.90;;;;;;4137678;28;20504;-67
2024/01/08 10:03:05;;;;;;;7.28;4.03;;;-0.10;99.90;;;;;;4139219;28;20030;-67
2024/01/08 10:05:07;;;;;;;8.00;4.53;;;-0.10;99.90;;;;;;4136786;28;20030;-70
2024/01/08 10:07:12;;;;;;;6.95;3.70;;;-0.10;99.90;;;;;;4138357;28;20037;-67
2024/01/08 10:09:13;;;;;;;7.43;4.13;;;0.00;99.90;;;;;;4137966;28;20049;-67
2024/01/08 10:11:14;;;;;;;6.57;4.22;;;0.00;99.90;;;;;;4135222;28;20041;-67
2024/01/08 10:13:14;;;;;;;7.32;3.65;;;0.00;99.90;;;;;;4137495;28;20489;-67
2024/01/08 10:15:18;;;;;;;6.25;3.78;;;-0.10;99.90;;;;;;4134298;28;20160;-67
2024/01/08 10:17:22;;;;;;;8.30;3.90;;;-0.10;99.90;;;;;;4138642;28;20042;-68
2024/01/08 10:19:23;;;;;;;7.20;3.72;;;-0.10;99.90;;;;;;4134960;28;20116;-67
2024/01/08 10:21:25;;;;;;;6.80;3.70;;;-0.20;99.90;;;;;;4135416;28;20073;-66
2024/01/08 10:23:25;;;;;;;5.40;3.72;;;-0.10;99.90;;;;;;4138890;28;20120;-73
2024/01/08 10:25:26;;;;;;;5.95;3.60;;;-0.10;99.90;;;;;;4138365;28;20073;-73
2024/01/08 10:27:28;;;;;;;5.80;3.30;;;-0.10;99.90;;;;;;4137630;28;20400;-74
2024/01/08 10:29:28;;;;;;;5.63;3.10;;;-0.10;99.90;;;;;;4137600;28;20038;-73
2024/01/08 10:31:29;;;;;;;5.53;2.97;;;-0.10;99.90;;;;;;4137782;28;20049;-73
2024/01/08 10:33:30;;;;;;;5.05;3.22;;;-0.20;99.90;;;;;;4138493;28;20706;-73